createdAt,value
2018-02-06T00:00:58.590Z,984.40
2018-02-06T00:01:58.530Z,984.36
2018-02-06T00:03:51.327Z,984.37
2018-02-06T00:04:51.238Z,984.34
2018-02-06T00:06:44.008Z,984.31
2018-02-06T00:07:43.950Z,984.26
2018-02-06T00:09:36.747Z,984.22
2018-02-06T00:10:36.658Z,984.25
2018-02-06T00:12:29.425Z,984.23
2018-02-06T00:13:29.367Z,984.21
2018-02-06T00:15:22.164Z,984.17
2018-02-06T00:16:22.075Z,984.17
2018-02-06T00:18:14.844Z,984.11
2018-02-06T00:19:14.782Z,984.18
2018-02-06T00:21:07.582Z,984.11
2018-02-06T00:22:07.495Z,984.10
2018-02-06T00:24:00.262Z,984.12
2018-02-06T00:25:00.204Z,984.14
2018-02-06T00:26:53.001Z,984.11
2018-02-06T00:27:52.911Z,984.13
2018-02-06T00:29:45.678Z,984.05
2018-02-06T00:30:45.619Z,984.06
2018-02-06T00:32:38.415Z,984.04
2018-02-06T00:33:38.327Z,984.04
2018-02-06T00:35:31.095Z,984.02
2018-02-06T00:36:31.037Z,983.97
2018-02-06T00:38:23.837Z,984.02
2018-02-06T00:39:23.746Z,984.00
2018-02-06T00:41:16.514Z,983.96
2018-02-06T00:42:16.456Z,983.92
2018-02-06T00:44:09.252Z,983.88
2018-02-06T00:45:09.162Z,983.86
2018-02-06T00:47:01.930Z,983.85
2018-02-06T00:48:01.871Z,983.85
2018-02-06T00:49:54.668Z,983.82
2018-02-06T00:50:54.578Z,983.82
2018-02-06T00:52:47.346Z,983.77
2018-02-06T00:53:47.285Z,983.79
2018-02-06T00:55:40.083Z,983.83
2018-02-06T00:56:39.992Z,983.86
2018-02-06T00:58:32.760Z,983.83
2018-02-06T00:59:32.700Z,983.84
2018-02-06T01:01:25.500Z,983.83
2018-02-06T01:02:25.410Z,983.83
2018-02-06T01:04:18.177Z,983.78
2018-02-06T01:05:18.117Z,983.76
2018-02-06T01:07:10.915Z,983.75
2018-02-06T01:08:10.825Z,983.73
2018-02-06T01:10:03.595Z,983.75
2018-02-06T01:11:03.534Z,983.76
2018-02-06T01:12:56.331Z,983.70
2018-02-06T01:13:56.240Z,983.74
2018-02-06T01:15:49.009Z,983.68
2018-02-06T01:16:48.952Z,983.63
2018-02-06T01:18:41.747Z,983.62
2018-02-06T01:19:41.657Z,983.64
2018-02-06T01:21:34.427Z,983.61
2018-02-06T01:22:34.368Z,983.58
2018-02-06T01:24:27.169Z,983.53
2018-02-06T01:25:27.075Z,983.51
2018-02-06T01:27:19.843Z,983.48
2018-02-06T01:28:19.782Z,983.45
2018-02-06T01:30:12.581Z,983.45
2018-02-06T01:31:12.490Z,983.47
2018-02-06T01:33:05.258Z,983.45
2018-02-06T01:34:05.201Z,983.45
2018-02-06T01:35:57.998Z,983.45
2018-02-06T01:36:57.908Z,983.46
2018-02-06T01:38:50.677Z,983.37
2018-02-06T01:39:50.619Z,983.36
2018-02-06T01:41:43.418Z,983.34
2018-02-06T01:42:43.329Z,983.33
2018-02-06T01:44:36.096Z,983.28
2018-02-06T01:45:36.036Z,983.29
2018-02-06T01:47:28.832Z,983.35
2018-02-06T01:48:28.743Z,983.37
2018-02-06T01:50:21.509Z,983.31
2018-02-06T01:51:21.450Z,983.32
2018-02-06T01:53:14.245Z,983.27
2018-02-06T01:54:14.157Z,983.24
2018-02-06T01:56:06.925Z,983.21
2018-02-06T01:57:06.864Z,983.22
2018-02-06T01:58:59.659Z,983.14
2018-02-06T01:59:59.569Z,983.09
2018-02-06T02:01:52.337Z,983.11
2018-02-06T02:02:52.277Z,982.99
2018-02-06T02:04:45.077Z,982.91
2018-02-06T02:05:44.984Z,982.89
2018-02-06T02:07:37.752Z,982.88
2018-02-06T02:08:37.695Z,982.91
2018-02-06T02:10:30.489Z,982.93
2018-02-06T02:11:30.397Z,983.00
2018-02-06T02:13:23.162Z,983.01
2018-02-06T02:14:23.108Z,982.98
2018-02-06T02:16:15.898Z,982.94
2018-02-06T02:17:15.808Z,982.96
2018-02-06T02:19:08.575Z,982.91
2018-02-06T02:20:08.513Z,982.86
2018-02-06T02:22:01.309Z,982.80
2018-02-06T02:23:01.220Z,982.72
2018-02-06T02:24:53.984Z,982.69
2018-02-06T02:25:53.925Z,982.64
2018-02-06T02:27:46.720Z,982.69
2018-02-06T02:28:46.630Z,982.75
2018-02-06T02:30:39.397Z,982.78
2018-02-06T02:31:39.336Z,982.79
2018-02-06T02:33:32.133Z,982.80
2018-02-06T02:34:32.042Z,982.75
2018-02-06T02:36:24.806Z,982.73
2018-02-06T02:37:24.746Z,982.68
2018-02-06T02:39:17.545Z,982.68
2018-02-06T02:40:17.458Z,982.65
2018-02-06T04:40:11.154Z,981.66
2018-02-06T04:41:11.063Z,981.65
2018-02-06T04:43:03.826Z,981.64
2018-02-06T04:44:03.766Z,981.62
2018-02-06T04:45:56.558Z,981.59
2018-02-06T04:46:56.468Z,981.54
2018-02-06T04:48:49.233Z,981.52
2018-02-06T04:49:49.172Z,981.51
2018-02-06T04:51:41.968Z,981.52
2018-02-06T04:52:41.879Z,981.44
2018-02-06T04:54:34.641Z,981.43
2018-02-06T04:55:34.579Z,981.46
2018-02-06T04:57:27.374Z,981.43
2018-02-06T04:58:27.281Z,981.49
2018-02-06T05:00:20.045Z,981.45
2018-02-06T05:01:19.984Z,981.41
2018-02-06T05:03:12.778Z,981.41
2018-02-06T05:04:12.688Z,981.38
2018-02-06T05:06:05.450Z,981.32
2018-02-06T05:07:05.390Z,981.33
2018-02-06T05:08:58.187Z,981.34
2018-02-06T05:09:58.093Z,981.38
2018-02-06T05:11:50.858Z,981.30
2018-02-06T05:12:50.797Z,981.34
2018-02-06T05:14:43.592Z,981.29
2018-02-06T05:15:43.500Z,981.26
2018-02-06T05:17:36.267Z,981.26
2018-02-06T05:18:36.207Z,981.29
2018-02-06T05:20:29.003Z,981.39
2018-02-06T05:21:28.914Z,981.43
2018-02-06T05:23:21.680Z,981.35
2018-02-06T05:24:21.617Z,981.35
2018-02-06T05:26:14.417Z,981.33
2018-02-06T05:27:14.321Z,981.29
2018-02-06T05:29:07.087Z,981.26
2018-02-06T05:30:07.023Z,981.21
2018-02-06T05:31:59.815Z,981.25
2018-02-06T05:32:59.725Z,981.23
2018-02-06T05:34:52.492Z,981.21
2018-02-06T05:35:52.432Z,981.22
2018-02-06T05:37:45.225Z,981.18
2018-02-06T05:38:45.134Z,981.17
2018-02-06T05:40:37.899Z,981.14
2018-02-06T05:41:37.838Z,981.16
2018-02-06T05:43:30.633Z,981.17
2018-02-06T05:44:30.543Z,981.15
2018-02-06T05:46:23.309Z,981.19
2018-02-06T05:47:23.244Z,981.16
2018-02-06T05:49:16.039Z,981.12
2018-02-06T05:50:15.948Z,981.12
2018-02-06T05:52:08.714Z,981.04
2018-02-06T05:53:08.653Z,981.07
2018-02-06T05:55:01.448Z,981.03
2018-02-06T05:56:01.356Z,980.95
2018-02-06T05:57:54.119Z,980.93
2018-02-06T05:58:54.059Z,980.88
2018-02-06T06:00:46.853Z,980.85
2018-02-06T06:01:46.760Z,980.83
2018-02-06T06:03:39.524Z,980.83
2018-02-06T06:04:39.462Z,980.84
2018-02-06T06:06:32.256Z,980.85
2018-02-06T06:07:32.166Z,980.83
2018-02-06T06:09:24.933Z,980.83
2018-02-06T06:10:24.870Z,980.82
2018-02-06T06:12:17.662Z,980.84
2018-02-06T06:13:17.571Z,980.80
2018-02-06T06:15:10.337Z,980.72
2018-02-06T06:16:10.275Z,980.75
2018-02-06T06:18:03.068Z,980.68
2018-02-06T06:19:02.979Z,980.70
2018-02-06T06:20:55.743Z,980.70
2018-02-06T06:21:55.681Z,980.65
2018-02-06T06:23:48.477Z,980.67
2018-02-06T06:24:48.386Z,980.66
2018-02-06T06:26:41.150Z,980.66
2018-02-06T06:27:41.089Z,980.66
2018-02-06T06:29:33.886Z,980.63
2018-02-06T06:30:33.801Z,980.69
2018-02-06T06:32:26.559Z,980.62
2018-02-06T06:33:26.499Z,980.62
2018-02-06T06:35:19.296Z,980.65
2018-02-06T06:36:19.201Z,980.60
2018-02-06T06:38:11.966Z,980.59
2018-02-06T06:39:11.905Z,980.62
2018-02-06T06:41:04.700Z,980.56
2018-02-06T06:42:04.612Z,980.56
2018-02-06T06:43:57.374Z,980.52
2018-02-06T06:44:57.312Z,980.55
2018-02-06T06:46:50.108Z,980.59
2018-02-06T06:47:50.015Z,980.56
2018-02-06T06:49:42.798Z,980.60
2018-02-06T06:50:42.722Z,980.58
2018-02-06T06:52:35.514Z,980.53
2018-02-06T06:53:35.424Z,980.53
2018-02-06T06:55:28.186Z,980.50
2018-02-06T06:56:28.125Z,980.52
2018-02-06T06:58:20.924Z,980.50
2018-02-06T06:59:20.833Z,980.50
2018-02-06T07:01:13.598Z,980.41
2018-02-06T07:02:13.537Z,980.45
2018-02-06T07:04:06.335Z,980.45
2018-02-06T07:05:06.244Z,980.42
2018-02-06T07:06:59.015Z,980.37
2018-02-06T07:07:58.954Z,980.41
2018-02-06T07:09:51.750Z,980.42
2018-02-06T07:10:51.662Z,980.44
2018-02-06T07:12:44.427Z,980.43
2018-02-06T07:13:44.365Z,980.41
2018-02-06T07:15:37.161Z,980.42
2018-02-06T07:16:37.071Z,980.37
2018-02-06T07:18:29.836Z,980.34
2018-02-06T07:19:29.776Z,980.37
2018-02-06T07:21:22.576Z,980.30
2018-02-06T07:22:22.485Z,980.38
2018-02-06T07:24:15.248Z,980.39
2018-02-06T07:25:15.187Z,980.38
2018-02-06T07:27:07.987Z,980.34
2018-02-06T07:28:07.895Z,980.33
2018-02-06T07:30:00.662Z,980.28
2018-02-06T07:31:00.602Z,980.25
2018-02-06T07:32:53.397Z,980.32
2018-02-06T07:33:53.306Z,980.29
2018-02-06T07:35:46.079Z,980.28
2018-02-06T07:36:46.012Z,980.25
2018-02-06T07:38:38.808Z,980.23
2018-02-06T07:39:38.717Z,980.27
2018-02-06T07:41:31.485Z,980.26
2018-02-06T07:42:31.427Z,980.24
2018-02-06T07:44:24.222Z,980.26
2018-02-06T07:45:24.132Z,980.29
2018-02-06T07:47:16.903Z,980.24
2018-02-06T07:48:16.838Z,980.23
2018-02-06T07:50:09.635Z,980.22
2018-02-06T07:51:09.544Z,980.21
2018-02-06T07:53:02.310Z,980.19
2018-02-06T07:54:02.251Z,980.21
2018-02-06T07:55:55.046Z,980.21
2018-02-06T07:56:54.958Z,980.22
2018-02-06T07:58:47.720Z,980.20
2018-02-06T07:59:47.663Z,980.14
2018-02-06T08:01:40.477Z,980.11
2018-02-06T08:02:40.371Z,980.13
2018-02-06T08:04:33.138Z,980.20
2018-02-06T08:05:33.078Z,980.17
2018-02-06T08:07:25.876Z,980.16
2018-02-06T08:08:25.787Z,980.19
2018-02-06T08:10:18.565Z,980.22
2018-02-06T08:11:18.497Z,980.20
2018-02-06T08:13:11.293Z,980.24
2018-02-06T08:14:11.202Z,980.28
2018-02-06T08:16:03.972Z,980.24
2018-02-06T08:17:03.913Z,980.24
2018-02-06T08:18:56.710Z,980.27
2018-02-06T08:19:56.622Z,980.31
2018-02-06T08:21:49.390Z,980.33
2018-02-06T08:22:49.331Z,980.37
2018-02-06T08:24:42.128Z,980.38
2018-02-06T08:25:42.038Z,980.33
2018-02-06T08:27:34.806Z,980.33
2018-02-06T08:28:34.747Z,980.35
2018-02-06T08:30:27.544Z,980.32
2018-02-06T08:31:27.458Z,980.34
2018-02-06T08:33:20.223Z,980.30
2018-02-06T08:34:20.164Z,980.34
2018-02-06T08:36:12.968Z,980.30
2018-02-06T08:37:12.876Z,980.28
2018-02-06T08:39:05.650Z,980.27
2018-02-06T08:40:05.596Z,980.27
2018-02-06T08:41:58.385Z,980.24
2018-02-06T08:42:58.295Z,980.28
2018-02-06T08:44:51.065Z,980.26
2018-02-06T08:45:51.006Z,980.26
2018-02-06T08:47:43.806Z,980.25
2018-02-06T08:48:43.717Z,980.26
2018-02-06T08:50:36.484Z,980.22
2018-02-06T08:51:36.426Z,980.21
2018-02-06T08:53:29.226Z,980.21
2018-02-06T08:54:29.138Z,980.20
2018-02-06T08:56:21.905Z,980.13
2018-02-06T08:57:21.845Z,980.08
2018-02-06T08:59:14.661Z,980.06
2018-02-06T09:00:14.557Z,980.02
2018-02-06T09:02:07.327Z,980.00
2018-02-06T09:03:07.270Z,979.99
2018-02-06T09:05:00.069Z,980.00
2018-02-06T09:05:59.981Z,980.00
2018-02-06T09:07:52.746Z,980.00
2018-02-06T09:08:52.688Z,980.03
2018-02-06T09:10:45.485Z,980.06
2018-02-06T09:11:45.395Z,980.05
2018-02-06T09:13:38.167Z,980.04
2018-02-06T09:14:38.109Z,980.08
2018-02-06T09:16:30.972Z,980.03
2018-02-06T09:17:30.820Z,980.02
2018-02-06T09:19:23.589Z,980.02
2018-02-06T09:20:23.529Z,979.96
2018-02-06T09:22:16.330Z,979.98
2018-02-06T09:23:16.240Z,980.03
2018-02-06T09:25:09.011Z,980.00
2018-02-06T09:26:08.950Z,979.99
2018-02-06T09:28:01.751Z,979.96
2018-02-06T09:29:01.663Z,979.99
2018-02-06T09:30:54.434Z,979.92
2018-02-06T09:31:54.376Z,979.93
2018-02-06T09:33:47.179Z,979.92
2018-02-06T09:34:47.091Z,979.91
2018-02-06T09:36:39.859Z,979.89
2018-02-06T09:37:39.801Z,979.89
2018-02-06T09:39:32.630Z,979.86
2018-02-06T09:40:32.512Z,979.86
2018-02-06T09:42:25.287Z,979.85
2018-02-06T09:43:25.225Z,979.83
2018-02-06T09:45:18.023Z,979.83
2018-02-06T09:46:17.935Z,979.79
2018-02-06T09:48:10.703Z,979.76
2018-02-06T09:49:10.646Z,979.73
2018-02-06T09:51:03.447Z,979.68
2018-02-06T09:52:03.356Z,979.69
2018-02-06T09:53:56.126Z,979.71
2018-02-06T09:54:56.068Z,979.65
2018-02-06T09:56:48.885Z,979.60
2018-02-06T09:57:48.780Z,979.58
2018-02-06T09:59:41.551Z,979.55
2018-02-06T10:00:41.492Z,979.54
2018-02-06T10:02:34.292Z,979.55
2018-02-06T10:03:34.205Z,979.57
2018-02-06T10:05:26.976Z,979.58
2018-02-06T10:06:26.922Z,979.55
2018-02-06T10:08:19.719Z,979.56
2018-02-06T10:09:19.630Z,979.54
2018-02-06T10:11:12.401Z,979.52
2018-02-06T10:12:12.343Z,979.50
2018-02-06T10:14:05.144Z,979.47
2018-02-06T10:15:05.055Z,979.44
2018-02-06T10:16:57.825Z,979.44
2018-02-06T10:17:57.768Z,979.38
2018-02-06T10:19:50.568Z,979.38
2018-02-06T10:20:50.480Z,979.36
2018-02-06T10:22:43.252Z,979.45
2018-02-06T10:23:43.191Z,979.43
2018-02-06T10:25:36.007Z,979.43
2018-02-06T10:26:35.902Z,979.41
2018-02-06T10:28:28.672Z,979.36
2018-02-06T10:29:28.614Z,979.35
2018-02-06T10:31:21.416Z,979.30
2018-02-06T10:32:21.329Z,979.35
2018-02-06T10:34:14.096Z,979.30
2018-02-06T10:35:14.040Z,979.33
2018-02-06T10:37:06.840Z,979.29
2018-02-06T10:38:06.752Z,979.29
2018-02-06T10:39:59.522Z,979.32
2018-02-06T10:40:59.464Z,979.27
2018-02-06T10:42:52.280Z,979.24
2018-02-06T10:43:52.175Z,979.22
2018-02-06T10:45:44.947Z,979.23
2018-02-06T10:46:44.891Z,979.18
2018-02-06T10:48:37.692Z,979.18
2018-02-06T10:49:37.604Z,979.11
2018-02-06T10:51:30.376Z,979.12
2018-02-06T10:52:30.316Z,979.13
2018-02-06T10:54:23.119Z,979.06
2018-02-06T10:55:23.030Z,979.08
2018-02-06T10:57:15.801Z,979.10
2018-02-06T10:58:15.744Z,979.09
2018-02-06T11:00:08.545Z,979.06
2018-02-06T11:01:08.457Z,979.02
2018-02-06T11:03:01.228Z,978.96
2018-02-06T11:04:01.172Z,978.95
2018-02-06T11:05:53.974Z,978.90
2018-02-06T11:06:53.886Z,978.91
2018-02-06T11:08:46.655Z,978.89
2018-02-06T11:09:46.598Z,978.85
2018-02-06T11:11:39.400Z,978.82
2018-02-06T11:12:39.313Z,978.78
2018-02-06T11:14:32.084Z,978.78
2018-02-06T11:15:32.027Z,978.77
2018-02-06T11:17:24.844Z,978.77
2018-02-06T11:18:24.741Z,978.77
2018-02-06T11:20:17.514Z,978.75
2018-02-06T11:21:17.454Z,978.74
2018-02-06T11:23:10.254Z,978.70
2018-02-06T11:24:10.167Z,978.70
2018-02-06T11:26:02.940Z,978.70
2018-02-06T11:27:02.882Z,978.65
2018-02-06T11:28:55.682Z,978.64
2018-02-06T11:29:55.594Z,978.65
2018-02-06T11:31:48.367Z,978.66
2018-02-06T11:32:48.310Z,978.58
2018-02-06T11:34:41.112Z,978.55
2018-02-06T11:35:41.022Z,978.58
2018-02-06T11:37:33.839Z,978.54
2018-02-06T11:38:33.739Z,978.54
2018-02-06T11:40:26.539Z,978.48
2018-02-06T11:41:26.451Z,978.47
2018-02-06T11:43:19.223Z,978.46
2018-02-06T11:44:19.165Z,978.49
2018-02-06T11:46:11.965Z,978.43
2018-02-06T11:47:11.880Z,978.44
2018-02-06T11:49:04.650Z,978.43
2018-02-06T11:50:04.592Z,978.43
2018-02-06T11:51:57.409Z,978.41
2018-02-06T11:52:57.306Z,978.41
2018-02-06T11:54:50.077Z,978.36
2018-02-06T11:55:50.019Z,978.36
2018-02-06T11:57:42.863Z,978.34
2018-02-06T11:58:42.733Z,978.28
2018-02-06T12:00:35.502Z,978.32
2018-02-06T12:01:35.444Z,978.25
2018-02-06T12:03:28.249Z,978.28
2018-02-06T12:04:28.161Z,978.25
2018-02-06T12:06:20.930Z,978.20
2018-02-06T12:07:20.871Z,978.25
2018-02-06T12:09:13.673Z,978.19
2018-02-06T12:10:13.586Z,978.21
2018-02-06T12:12:06.356Z,978.14
2018-02-06T12:13:06.298Z,978.15
2018-02-06T12:14:59.100Z,978.03
2018-02-06T12:15:59.011Z,978.06
2018-02-06T12:17:51.786Z,977.99
2018-02-06T12:18:51.727Z,977.92
2018-02-06T12:20:44.558Z,977.90
2018-02-06T12:21:44.441Z,977.91
2018-02-06T12:23:37.212Z,977.84
2018-02-06T12:24:37.155Z,977.85
2018-02-06T12:26:29.960Z,977.79
2018-02-06T12:27:29.872Z,977.81
2018-02-06T12:29:22.642Z,977.79
2018-02-06T12:30:22.585Z,977.80
2018-02-06T12:32:15.386Z,977.73
2018-02-06T12:33:15.297Z,977.73
2018-02-06T12:35:08.070Z,977.66
2018-02-06T12:36:08.012Z,977.61
2018-02-06T12:38:00.830Z,977.61
2018-02-06T12:39:00.725Z,977.60
2018-02-06T12:40:53.495Z,977.60
2018-02-06T12:41:53.443Z,977.57
2018-02-06T12:43:46.240Z,977.49
2018-02-06T12:44:46.152Z,977.49
2018-02-06T12:46:38.922Z,977.43
2018-02-06T12:47:38.865Z,977.45
2018-02-06T12:49:31.667Z,977.48
2018-02-06T12:50:31.579Z,977.49
2018-02-06T12:52:24.357Z,977.45
2018-02-06T12:53:24.300Z,977.46
2018-02-06T12:55:17.100Z,977.37
2018-02-06T12:56:17.012Z,977.39
2018-02-06T12:58:09.782Z,977.32
2018-02-06T12:59:09.725Z,977.35
2018-02-06T13:01:02.529Z,977.27
2018-02-06T13:02:02.441Z,977.27
2018-02-06T13:03:55.212Z,977.28
2018-02-06T13:04:55.150Z,977.25
2018-02-06T13:06:47.966Z,977.19
2018-02-06T13:07:47.865Z,977.15
2018-02-06T13:09:40.639Z,977.15
2018-02-06T13:10:40.584Z,977.18
2018-02-06T13:12:33.384Z,977.13
2018-02-06T13:13:33.295Z,977.15
2018-02-06T13:15:26.065Z,977.08
2018-02-06T13:16:26.007Z,977.09
2018-02-06T13:18:18.809Z,976.99
2018-02-06T13:19:18.721Z,977.02
2018-02-06T13:21:11.492Z,976.98
2018-02-06T13:22:11.435Z,977.01
2018-02-06T13:24:04.254Z,976.99
2018-02-06T13:25:04.151Z,976.97
2018-02-06T13:26:56.922Z,976.98
2018-02-06T13:27:56.863Z,976.94
2018-02-06T13:29:49.666Z,976.99
2018-02-06T13:30:49.577Z,977.01
2018-02-06T13:32:42.347Z,976.96
2018-02-06T13:33:42.290Z,976.95
2018-02-06T13:35:35.089Z,976.99
2018-02-06T13:36:35.001Z,977.00
2018-02-06T13:38:27.769Z,976.94
2018-02-06T13:39:27.716Z,976.92
2018-02-06T13:41:20.513Z,976.93
2018-02-06T13:42:20.427Z,976.94
2018-02-06T13:44:13.195Z,976.97
2018-02-06T13:45:13.138Z,976.99
2018-02-06T13:47:05.942Z,976.95
2018-02-06T13:48:05.850Z,976.93
2018-02-06T13:49:58.624Z,976.97
2018-02-06T13:50:58.579Z,976.93
2018-02-06T13:52:51.363Z,976.91
2018-02-06T13:53:51.279Z,976.94
2018-02-06T13:55:44.044Z,976.85
2018-02-06T13:56:43.986Z,976.88
2018-02-06T13:58:36.788Z,976.80
2018-02-06T13:59:36.699Z,976.80
2018-02-06T14:01:29.472Z,976.68
2018-02-06T14:02:29.414Z,976.67
2018-02-06T14:04:22.233Z,976.66
2018-02-06T14:05:22.126Z,976.63
2018-02-06T14:07:14.899Z,976.60
2018-02-06T14:08:14.841Z,976.56
2018-02-06T14:10:07.643Z,976.57
2018-02-06T14:11:07.556Z,976.58
2018-02-06T14:13:00.329Z,976.55
2018-02-06T14:14:00.267Z,976.54
2018-02-06T14:15:53.074Z,976.57
2018-02-06T14:16:52.988Z,976.59
2018-02-06T14:18:45.757Z,976.64
2018-02-06T14:19:45.700Z,976.62
2018-02-06T14:21:38.502Z,976.66
2018-02-06T14:22:38.412Z,976.68
2018-02-06T14:24:31.182Z,976.60
2018-02-06T14:25:31.124Z,976.61
2018-02-06T14:27:23.921Z,976.58
2018-02-06T14:28:23.835Z,976.51
2018-02-06T14:30:16.605Z,976.48
2018-02-06T14:31:16.547Z,976.48
2018-02-06T14:33:09.350Z,976.46
2018-02-06T14:34:09.259Z,976.47
2018-02-06T14:36:02.027Z,976.50
2018-02-06T14:37:01.969Z,976.48
2018-02-06T14:38:54.768Z,976.54
2018-02-06T14:39:54.680Z,976.46
2018-02-06T14:41:47.449Z,976.50
2018-02-06T14:42:47.391Z,976.45
2018-02-06T14:44:40.188Z,976.48
2018-02-06T14:45:40.100Z,976.47
2018-02-06T14:47:32.869Z,976.44
2018-02-06T14:48:32.811Z,976.41
2018-02-06T14:50:25.624Z,976.41
2018-02-06T14:51:25.520Z,976.41
2018-02-06T14:53:18.289Z,976.48
2018-02-06T14:54:18.229Z,976.47
2018-02-06T14:56:11.027Z,976.47
2018-02-06T14:57:10.939Z,976.48
2018-02-06T14:59:03.710Z,976.50
2018-02-06T15:00:03.658Z,976.47
2018-02-06T15:01:56.452Z,976.42
2018-02-06T15:02:56.362Z,976.45
2018-02-06T15:04:49.130Z,976.41
2018-02-06T15:05:49.071Z,976.43
2018-02-06T15:07:41.870Z,976.45
2018-02-06T15:08:41.780Z,976.48
2018-02-06T15:10:34.547Z,976.44
2018-02-06T15:11:34.488Z,976.44
2018-02-06T15:13:27.288Z,976.41
2018-02-06T15:14:27.202Z,976.50
2018-02-06T15:16:19.970Z,976.46
2018-02-06T15:17:19.913Z,976.53
2018-02-06T15:19:12.712Z,976.53
2018-02-06T15:20:12.623Z,976.56
2018-02-06T15:22:05.389Z,976.59
2018-02-06T15:23:05.330Z,976.56
2018-02-06T15:24:58.144Z,976.59
2018-02-06T15:25:58.039Z,976.55
2018-02-06T15:27:50.806Z,976.53
2018-02-06T15:28:50.749Z,976.53
2018-02-06T15:30:43.547Z,976.50
2018-02-06T15:31:43.463Z,976.54
2018-02-06T15:33:36.224Z,976.51
2018-02-06T15:34:36.165Z,976.54
2018-02-06T15:36:28.963Z,976.53
2018-02-06T15:37:28.873Z,976.54
2018-02-06T15:39:21.641Z,976.61
2018-02-06T15:40:21.579Z,976.59
2018-02-06T15:42:14.378Z,976.57
2018-02-06T15:43:14.314Z,976.58
2018-02-06T15:45:07.058Z,976.56
2018-02-06T15:46:06.997Z,976.60
2018-02-06T15:47:59.798Z,976.62
2018-02-06T15:48:59.734Z,976.63
2018-02-06T15:50:52.481Z,976.62
2018-02-06T15:51:52.417Z,976.61
2018-02-06T15:53:45.218Z,976.61
2018-02-06T15:54:45.127Z,976.62
2018-02-06T15:56:37.895Z,976.62
2018-02-06T15:57:37.836Z,976.56
2018-02-06T15:59:30.633Z,976.54
2018-02-06T16:00:30.542Z,976.51
2018-02-06T16:02:23.308Z,976.44
2018-02-06T16:03:23.249Z,976.46
2018-02-06T16:05:16.063Z,976.43
2018-02-06T16:06:15.957Z,976.39
2018-02-06T16:08:08.723Z,976.40
2018-02-06T16:09:08.663Z,976.41
2018-02-06T16:11:01.461Z,976.44
2018-02-06T16:12:01.371Z,976.40
2018-02-06T16:13:54.139Z,976.46
2018-02-06T16:14:54.078Z,976.43
2018-02-06T16:16:46.879Z,976.42
2018-02-06T16:17:46.790Z,976.39
2018-02-06T16:19:39.558Z,976.41
2018-02-06T16:20:39.498Z,976.41
2018-02-06T16:22:32.296Z,976.41
2018-02-06T16:23:32.208Z,976.42
2018-02-06T16:25:24.971Z,976.43
2018-02-06T16:26:24.911Z,976.47
2018-02-06T16:28:17.711Z,976.46
2018-02-06T16:29:17.620Z,976.47
2018-02-06T16:31:10.386Z,976.45
2018-02-06T16:32:10.328Z,976.48
2018-02-06T16:34:03.126Z,976.46
2018-02-06T16:35:03.036Z,976.50
2018-02-06T16:36:55.801Z,976.51
2018-02-06T16:37:55.741Z,976.52
2018-02-06T16:39:48.542Z,976.52
2018-02-06T16:40:48.448Z,976.52
2018-02-06T16:42:41.216Z,976.56
2018-02-06T16:43:41.157Z,976.56
2018-02-06T16:45:33.954Z,976.59
2018-02-06T16:46:33.866Z,976.58
2018-02-06T16:48:26.629Z,976.59
2018-02-06T16:49:26.570Z,976.63
2018-02-06T16:51:19.366Z,976.63
2018-02-06T16:52:19.278Z,976.65
2018-02-06T16:54:12.045Z,976.68
2018-02-06T16:55:11.986Z,976.69
2018-02-06T16:57:04.779Z,976.63
2018-02-06T16:58:04.690Z,976.62
2018-02-06T16:59:57.454Z,976.65
2018-02-06T17:00:57.394Z,976.64
2018-02-06T17:02:50.191Z,976.63
2018-02-06T17:03:50.101Z,976.61
2018-02-06T17:05:42.868Z,976.59
2018-02-06T17:06:42.809Z,976.58
2018-02-06T17:08:35.640Z,976.63
2018-02-06T17:09:35.516Z,976.64
2018-02-06T17:11:28.281Z,976.65
2018-02-06T17:12:28.220Z,976.66
2018-02-06T17:14:21.016Z,976.67
2018-02-06T17:15:20.925Z,976.61
2018-02-06T17:17:13.690Z,976.62
2018-02-06T17:18:13.632Z,976.64
2018-02-06T17:20:06.424Z,976.59
2018-02-06T17:21:06.333Z,976.62
2018-02-06T17:22:59.099Z,976.74
2018-02-06T17:23:59.038Z,976.64
2018-02-06T17:25:51.860Z,976.59
2018-02-06T17:26:51.740Z,976.59
2018-02-06T17:28:44.503Z,976.62
2018-02-06T17:29:44.442Z,976.65
2018-02-06T17:31:37.237Z,976.64
2018-02-06T17:32:37.145Z,976.68
2018-02-06T17:34:29.909Z,976.72
2018-02-06T17:35:29.849Z,976.74
2018-02-06T17:37:22.648Z,976.69
2018-02-06T17:38:22.556Z,976.69
2018-02-06T17:40:15.325Z,976.69
2018-02-06T17:41:15.268Z,976.69
2018-02-06T17:43:08.080Z,976.67
2018-02-06T17:44:07.973Z,976.65
2018-02-06T17:46:00.742Z,976.64
2018-02-06T17:47:00.683Z,976.64
2018-02-06T17:48:53.483Z,976.71
2018-02-06T17:49:53.394Z,976.68
2018-02-06T17:51:46.165Z,976.72
2018-02-06T17:52:46.107Z,976.74
2018-02-06T17:54:38.909Z,976.75
2018-02-06T17:55:38.820Z,976.77
2018-02-06T17:57:31.588Z,976.74
2018-02-06T17:58:31.530Z,976.75
2018-02-06T18:00:24.329Z,976.77
2018-02-06T18:01:24.240Z,976.80
2018-02-06T18:03:17.013Z,976.81
2018-02-06T18:04:16.956Z,976.76
2018-02-06T18:06:09.755Z,976.75
2018-02-06T18:07:09.668Z,976.73
2018-02-06T18:09:02.443Z,976.77
2018-02-06T18:10:02.386Z,976.76
2018-02-06T18:11:55.189Z,976.77
2018-02-06T18:12:55.100Z,976.76
2018-02-06T18:14:47.875Z,976.71
2018-02-06T18:15:47.814Z,976.73
2018-02-06T18:17:40.618Z,976.71
2018-02-06T18:18:40.535Z,976.66
2018-02-06T18:20:33.304Z,976.60
2018-02-06T18:21:33.248Z,976.57
2018-02-06T18:23:26.050Z,976.57
2018-02-06T18:24:25.963Z,976.60
2018-02-06T18:26:18.736Z,976.61
2018-02-06T18:27:18.680Z,976.62
2018-02-06T18:29:11.484Z,976.67
2018-02-06T18:30:11.399Z,976.64
2018-02-06T18:32:04.170Z,976.67
2018-02-06T18:33:04.113Z,976.65
2018-02-06T18:34:56.920Z,976.68
2018-02-06T18:35:56.830Z,976.70
2018-02-06T18:37:49.605Z,976.68
2018-02-06T18:38:49.549Z,976.70
2018-02-06T18:40:42.352Z,976.72
2018-02-06T18:41:42.266Z,976.67
2018-02-06T18:43:35.039Z,976.66
2018-02-06T18:44:34.982Z,976.66
2018-02-06T18:46:27.787Z,976.64
2018-02-06T18:47:27.699Z,976.66
2018-02-06T18:49:20.472Z,976.71
2018-02-06T18:50:20.416Z,976.73
2018-02-06T18:52:13.218Z,976.72
2018-02-06T18:53:13.130Z,976.73
2018-02-06T18:55:05.904Z,976.63
2018-02-06T18:56:05.848Z,976.63
2018-02-06T18:57:58.651Z,976.70
2018-02-06T18:58:58.566Z,976.66
2018-02-06T19:00:51.341Z,976.74
2018-02-06T19:01:51.286Z,976.67
2018-02-06T19:03:44.089Z,976.64
2018-02-06T19:04:44.004Z,976.65
2018-02-06T19:06:36.778Z,976.73
2018-02-06T19:07:36.722Z,976.73
2018-02-06T19:09:29.527Z,976.72
2018-02-06T19:10:29.438Z,976.73
2018-02-06T19:12:22.217Z,976.73
2018-02-06T19:13:22.155Z,976.74
2018-02-06T19:15:14.957Z,976.72
2018-02-06T19:16:14.873Z,976.69
2018-02-06T19:18:07.647Z,976.72
2018-02-06T19:19:07.593Z,976.76
2018-02-06T19:21:00.398Z,976.76
2018-02-06T19:22:00.312Z,976.77
2018-02-06T19:23:53.085Z,976.73
2018-02-06T19:24:53.029Z,976.68
2018-02-06T19:26:45.836Z,976.72
2018-02-06T19:27:45.752Z,976.71
2018-02-06T19:29:38.523Z,976.70
2018-02-06T19:30:38.466Z,976.70
2018-02-06T19:32:31.273Z,976.67
2018-02-06T19:33:31.187Z,976.62
2018-02-06T19:35:23.963Z,976.61
2018-02-06T19:36:23.905Z,976.65
2018-02-06T19:38:16.711Z,976.62
2018-02-06T19:39:16.627Z,976.67
2018-02-06T19:41:09.401Z,976.67
2018-02-06T19:42:09.346Z,976.67
2018-02-06T19:44:02.154Z,976.64
2018-02-06T19:45:02.115Z,976.62
2018-02-06T19:46:54.840Z,976.64
2018-02-06T19:47:54.784Z,976.60
2018-02-06T19:49:47.589Z,976.64
2018-02-06T19:50:47.502Z,976.62
2018-02-06T19:52:40.284Z,976.62
2018-02-06T19:53:40.227Z,976.59
2018-02-06T19:55:33.032Z,976.61